sensor_id;sensor_type;location;lat;lon;timestamp;P1;durP1;ratioP1;P2;durP2;ratioP2
66874;SDS011;53784;52.630;4.896;2023-06-14T00:00:37;9.07;;;3.10;;
66874;SDS011;53784;52.630;4.896;2023-06-14T00:03:05;8.02;;;3.00;;
66874;SDS011;53784;52.630;4.896;2023-06-14T00:05:35;7.78;;;3.38;;
66874;SDS011;53784;52.630;4.896;2023-06-14T00:08:08;9.18;;;3.38;;
66874;SDS011;53784;52.630;4.896;2023-06-14T00:10:36;6.53;;;3.10;;
66874;SDS011;53784;52.630;4.896;2023-06-14T00:13:05;10.00;;;3.20;;
66874;SDS011;53784;52.630;4.896;2023-06-14T00:15:32;7.18;;;3.22;;
66874;SDS011;53784;52.630;4.896;2023-06-14T00:17:58;6.97;;;3.20;;
66874;SDS011;53784;52.630;4.896;2023-06-14T00:20:26;8.02;;;3.17;;
66874;SDS011;53784;52.630;4.896;2023-06-14T00:22:52;7.10;;;3.00;;
66874;SDS011;53784;52.630;4.896;2023-06-14T00:25:19;6.68;;;3.20;;
66874;SDS011;53784;52.630;4.896;2023-06-14T00:27:44;7.22;;;3.05;;
66874;SDS011;53784;52.630;4.896;2023-06-14T00:30:10;9.02;;;3.20;;
66874;SDS011;53784;52.630;4.896;2023-06-14T00:32:35;7.88;;;3.20;;
66874;SDS011;53784;52.630;4.896;2023-06-14T00:35:01;10.15;;;3.40;;
66874;SDS011;53784;52.630;4.896;2023-06-14T00:37:26;7.03;;;3.25;;
66874;SDS011;53784;52.630;4.896;2023-06-14T00:39:51;5.93;;;3.00;;
66874;SDS011;53784;52.630;4.896;2023-06-14T00:42:23;8.15;;;3.00;;
66874;SDS011;53784;52.630;4.896;2023-06-14T00:44:49;7.97;;;3.25;;
66874;SDS011;53784;52.630;4.896;2023-06-14T00:47:15;7.10;;;3.03;;
66874;SDS011;53784;52.630;4.896;2023-06-14T00:49:40;7.15;;;3.05;;
66874;SDS011;53784;52.630;4.896;2023-06-14T00:52:06;5.85;;;2.83;;
66874;SDS011;53784;52.630;4.896;2023-06-14T00:54:32;6.68;;;2.90;;
66874;SDS011;53784;52.630;4.896;2023-06-14T00:56:57;6.85;;;3.10;;
66874;SDS011;53784;52.630;4.896;2023-06-14T00:59:22;7.57;;;2.70;;
66874;SDS011;53784;52.630;4.896;2023-06-14T01:01:48;5.28;;;2.53;;
66874;SDS011;53784;52.630;4.896;2023-06-14T01:04:13;6.45;;;2.95;;
66874;SDS011;53784;52.630;4.896;2023-06-14T01:11:59;7.07;;;2.58;;
66874;SDS011;53784;52.630;4.896;2023-06-14T01:14:26;7.57;;;3.10;;
66874;SDS011;53784;52.630;4.896;2023-06-14T01:16:52;12.82;;;3.00;;
66874;SDS011;53784;52.630;4.896;2023-06-14T01:19:18;8.45;;;2.65;;
66874;SDS011;53784;52.630;4.896;2023-06-14T01:21:44;5.80;;;2.60;;
66874;SDS011;53784;52.630;4.896;2023-06-14T01:24:09;5.90;;;2.70;;
66874;SDS011;53784;52.630;4.896;2023-06-14T01:26:36;5.97;;;2.60;;
66874;SDS011;53784;52.630;4.896;2023-06-14T01:29:04;5.55;;;2.53;;
66874;SDS011;53784;52.630;4.896;2023-06-14T01:31:29;5.32;;;2.75;;
66874;SDS011;53784;52.630;4.896;2023-06-14T01:34:04;4.85;;;2.33;;
66874;SDS011;53784;52.630;4.896;2023-06-14T01:36:30;6.47;;;2.80;;
66874;SDS011;53784;52.630;4.896;2023-06-14T01:38:55;8.80;;;2.83;;
66874;SDS011;53784;52.630;4.896;2023-06-14T01:41:21;6.38;;;2.90;;
66874;SDS011;53784;52.630;4.896;2023-06-14T01:43:47;5.45;;;2.67;;
66874;SDS011;53784;52.630;4.896;2023-06-14T01:46:14;7.32;;;3.05;;
66874;SDS011;53784;52.630;4.896;2023-06-14T01:48:40;6.22;;;2.88;;
66874;SDS011;53784;52.630;4.896;2023-06-14T01:51:05;5.18;;;2.70;;
66874;SDS011;53784;52.630;4.896;2023-06-14T01:53:31;7.75;;;2.75;;
66874;SDS011;53784;52.630;4.896;2023-06-14T01:55:56;6.53;;;2.63;;
66874;SDS011;53784;52.630;4.896;2023-06-14T01:58:21;4.85;;;2.58;;
66874;SDS011;53784;52.630;4.896;2023-06-14T02:00:47;7.38;;;2.90;;
66874;SDS011;53784;52.630;4.896;2023-06-14T02:03:12;5.55;;;3.08;;
66874;SDS011;53784;52.630;4.896;2023-06-14T02:05:38;7.38;;;3.00;;
66874;SDS011;53784;52.630;4.896;2023-06-14T02:08:04;5.65;;;2.72;;
66874;SDS011;53784;52.630;4.896;2023-06-14T02:10:30;6.28;;;2.75;;
66874;SDS011;53784;52.630;4.896;2023-06-14T02:12:55;7.15;;;2.90;;
66874;SDS011;53784;52.630;4.896;2023-06-14T02:15:21;5.65;;;2.63;;
66874;SDS011;53784;52.630;4.896;2023-06-14T02:17:46;6.30;;;3.00;;
66874;SDS011;53784;52.630;4.896;2023-06-14T02:20:12;9.85;;;2.70;;
66874;SDS011;53784;52.630;4.896;2023-06-14T02:22:37;6.82;;;2.67;;
66874;SDS011;53784;52.630;4.896;2023-06-14T02:25:03;7.25;;;2.58;;
66874;SDS011;53784;52.630;4.896;2023-06-14T02:27:28;5.32;;;2.50;;
66874;SDS011;53784;52.630;4.896;2023-06-14T02:29:54;5.47;;;2.80;;
66874;SDS011;53784;52.630;4.896;2023-06-14T02:32:19;5.72;;;2.63;;
66874;SDS011;53784;52.630;4.896;2023-06-14T02:34:45;6.43;;;2.90;;
66874;SDS011;53784;52.630;4.896;2023-06-14T02:37:14;6.28;;;2.85;;
66874;SDS011;53784;52.630;4.896;2023-06-14T02:39:39;7.10;;;2.90;;
66874;SDS011;53784;52.630;4.896;2023-06-14T02:42:05;6.07;;;2.63;;
66874;SDS011;53784;52.630;4.896;2023-06-14T02:44:31;7.32;;;3.20;;
66874;SDS011;53784;52.630;4.896;2023-06-14T02:46:57;4.75;;;2.80;;
66874;SDS011;53784;52.630;4.896;2023-06-14T02:49:23;7.43;;;2.90;;
66874;SDS011;53784;52.630;4.896;2023-06-14T02:51:49;4.60;;;2.70;;
66874;SDS011;53784;52.630;4.896;2023-06-14T02:54:14;7.85;;;2.90;;
66874;SDS011;53784;52.630;4.896;2023-06-14T02:56:40;6.75;;;2.90;;
66874;SDS011;53784;52.630;4.896;2023-06-14T02:59:05;6.05;;;2.90;;
66874;SDS011;53784;52.630;4.896;2023-06-14T03:01:32;7.93;;;2.85;;
66874;SDS011;53784;52.630;4.896;2023-06-14T03:04:03;5.90;;;2.83;;
66874;SDS011;53784;52.630;4.896;2023-06-14T03:06:31;5.60;;;2.80;;
66874;SDS011;53784;52.630;4.896;2023-06-14T03:08:57;8.13;;;2.80;;
66874;SDS011;53784;52.630;4.896;2023-06-14T03:11:26;4.97;;;2.78;;
66874;SDS011;53784;52.630;4.896;2023-06-14T03:13:52;5.68;;;2.90;;
66874;SDS011;53784;52.630;4.896;2023-06-14T03:16:18;7.22;;;2.50;;
66874;SDS011;53784;52.630;4.896;2023-06-14T03:18:46;7.03;;;2.85;;
66874;SDS011;53784;52.630;4.896;2023-06-14T03:21:13;7.22;;;2.97;;
66874;SDS011;53784;52.630;4.896;2023-06-14T03:23:40;7.18;;;2.63;;
66874;SDS011;53784;52.630;4.896;2023-06-14T03:26:06;4.72;;;2.67;;
66874;SDS011;53784;52.630;4.896;2023-06-14T03:28:31;5.82;;;2.45;;
66874;SDS011;53784;52.630;4.896;2023-06-14T03:30:56;9.00;;;2.80;;
66874;SDS011;53784;52.630;4.896;2023-06-14T03:33:22;5.90;;;2.70;;
66874;SDS011;53784;52.630;4.896;2023-06-14T03:35:47;5.45;;;2.42;;
66874;SDS011;53784;52.630;4.896;2023-06-14T03:38:12;6.40;;;2.70;;
66874;SDS011;53784;52.630;4.896;2023-06-14T03:40:38;6.70;;;2.55;;
66874;SDS011;53784;52.630;4.896;2023-06-14T03:43:03;4.20;;;2.50;;
66874;SDS011;53784;52.630;4.896;2023-06-14T03:45:28;5.65;;;2.50;;
66874;SDS011;53784;52.630;4.896;2023-06-14T03:47:54;9.40;;;2.70;;
66874;SDS011;53784;52.630;4.896;2023-06-14T03:50:19;9.27;;;2.75;;
66874;SDS011;53784;52.630;4.896;2023-06-14T03:52:44;7.22;;;2.70;;
66874;SDS011;53784;52.630;4.896;2023-06-14T03:55:13;6.70;;;2.63;;
66874;SDS011;53784;52.630;4.896;2023-06-14T03:57:39;5.70;;;2.35;;
66874;SDS011;53784;52.630;4.896;2023-06-14T04:00:04;5.80;;;2.40;;
66874;SDS011;53784;52.630;4.896;2023-06-14T04:02:31;5.13;;;2.20;;
66874;SDS011;53784;52.630;4.896;2023-06-14T04:04:56;5.15;;;2.60;;
66874;SDS011;53784;52.630;4.896;2023-06-14T04:07:21;7.18;;;2.72;;
66874;SDS011;53784;52.630;4.896;2023-06-14T04:09:47;4.00;;;2.20;;
66874;SDS011;53784;52.630;4.896;2023-06-14T04:12:13;5.57;;;2.42;;
66874;SDS011;53784;52.630;4.896;2023-06-14T04:14:39;5.50;;;2.45;;
66874;SDS011;53784;52.630;4.896;2023-06-14T04:17:04;8.27;;;2.50;;
66874;SDS011;53784;52.630;4.896;2023-06-14T04:19:30;8.35;;;2.35;;
66874;SDS011;53784;52.630;4.896;2023-06-14T04:21:55;6.43;;;2.30;;
66874;SDS011;53784;52.630;4.896;2023-06-14T04:24:20;8.25;;;2.40;;
66874;SDS011;53784;52.630;4.896;2023-06-14T04:26:46;8.77;;;2.50;;
66874;SDS011;53784;52.630;4.896;2023-06-14T04:29:12;6.55;;;2.42;;
66874;SDS011;53784;52.630;4.896;2023-06-14T04:31:45;4.72;;;2.35;;
66874;SDS011;53784;52.630;4.896;2023-06-14T04:34:11;5.03;;;2.47;;
66874;SDS011;53784;52.630;4.896;2023-06-14T04:36:41;4.82;;;2.20;;
66874;SDS011;53784;52.630;4.896;2023-06-14T04:39:08;5.05;;;2.45;;
66874;SDS011;53784;52.630;4.896;2023-06-14T04:41:33;5.85;;;2.42;;
66874;SDS011;53784;52.630;4.896;2023-06-14T04:44:00;5.95;;;2.38;;
66874;SDS011;53784;52.630;4.896;2023-06-14T04:46:29;6.88;;;2.47;;
66874;SDS011;53784;52.630;4.896;2023-06-14T04:48:57;4.13;;;2.28;;
66874;SDS011;53784;52.630;4.896;2023-06-14T04:51:22;8.07;;;2.45;;
66874;SDS011;53784;52.630;4.896;2023-06-14T04:53:54;5.97;;;2.30;;
66874;SDS011;53784;52.630;4.896;2023-06-14T04:56:21;4.72;;;2.30;;
66874;SDS011;53784;52.630;4.896;2023-06-14T04:58:47;7.38;;;2.20;;
66874;SDS011;53784;52.630;4.896;2023-06-14T05:01:12;6.65;;;2.40;;
66874;SDS011;53784;52.630;4.896;2023-06-14T05:03:37;5.32;;;2.40;;
66874;SDS011;53784;52.630;4.896;2023-06-14T05:06:03;6.68;;;2.30;;
66874;SDS011;53784;52.630;4.896;2023-06-14T05:08:28;6.10;;;2.38;;
66874;SDS011;53784;52.630;4.896;2023-06-14T05:10:54;5.00;;;2.40;;
66874;SDS011;53784;52.630;4.896;2023-06-14T05:13:19;5.47;;;2.35;;
66874;SDS011;53784;52.630;4.896;2023-06-14T05:15:46;7.30;;;2.30;;
66874;SDS011;53784;52.630;4.896;2023-06-14T05:18:12;9.85;;;2.45;;
66874;SDS011;53784;52.630;4.896;2023-06-14T05:20:38;8.18;;;2.40;;
66874;SDS011;53784;52.630;4.896;2023-06-14T05:23:03;4.57;;;2.30;;
66874;SDS011;53784;52.630;4.896;2023-06-14T05:25:29;5.43;;;2.40;;
66874;SDS011;53784;52.630;4.896;2023-06-14T05:27:54;7.13;;;2.50;;
66874;SDS011;53784;52.630;4.896;2023-06-14T05:30:19;8.65;;;2.63;;
66874;SDS011;53784;52.630;4.896;2023-06-14T05:32:45;6.75;;;2.30;;
66874;SDS011;53784;52.630;4.896;2023-06-14T05:35:11;6.10;;;2.30;;
66874;SDS011;53784;52.630;4.896;2023-06-14T05:37:36;4.78;;;2.30;;
66874;SDS011;53784;52.630;4.896;2023-06-14T05:40:02;5.68;;;2.33;;
66874;SDS011;53784;52.630;4.896;2023-06-14T05:42:30;5.38;;;2.40;;
66874;SDS011;53784;52.630;4.896;2023-06-14T05:44:56;5.05;;;2.20;;
66874;SDS011;53784;52.630;4.896;2023-06-14T05:47:21;7.07;;;2.30;;
66874;SDS011;53784;52.630;4.896;2023-06-14T05:49:46;6.27;;;2.30;;
66874;SDS011;53784;52.630;4.896;2023-06-14T05:52:12;5.68;;;2.30;;
66874;SDS011;53784;52.630;4.896;2023-06-14T05:54:38;6.47;;;2.53;;
66874;SDS011;53784;52.630;4.896;2023-06-14T05:57:03;5.55;;;2.20;;
66874;SDS011;53784;52.630;4.896;2023-06-14T05:59:31;5.45;;;2.22;;
66874;SDS011;53784;52.630;4.896;2023-06-14T06:01:56;6.70;;;2.20;;
66874;SDS011;53784;52.630;4.896;2023-06-14T06:04:22;8.90;;;2.53;;
66874;SDS011;53784;52.630;4.896;2023-06-14T06:06:48;5.72;;;2.30;;
66874;SDS011;53784;52.630;4.896;2023-06-14T06:09:13;5.82;;;2.00;;
66874;SDS011;53784;52.630;4.896;2023-06-14T06:11:41;7.43;;;2.45;;
66874;SDS011;53784;52.630;4.896;2023-06-14T06:14:07;4.33;;;2.30;;
66874;SDS011;53784;52.630;4.896;2023-06-14T06:16:32;5.73;;;2.50;;
66874;SDS011;53784;52.630;4.896;2023-06-14T06:18:58;7.82;;;2.40;;
66874;SDS011;53784;52.630;4.896;2023-06-14T06:21:24;5.38;;;2.35;;
66874;SDS011;53784;52.630;4.896;2023-06-14T06:23:49;4.28;;;2.22;;
66874;SDS011;53784;52.630;4.896;2023-06-14T06:26:15;5.00;;;2.42;;
66874;SDS011;53784;52.630;4.896;2023-06-14T06:28:40;5.88;;;2.50;;
66874;SDS011;53784;52.630;4.896;2023-06-14T06:31:05;4.53;;;2.30;;
66874;SDS011;53784;52.630;4.896;2023-06-14T06:33:31;5.82;;;2.40;;
66874;SDS011;53784;52.630;4.896;2023-06-14T06:35:56;8.47;;;2.70;;
66874;SDS011;53784;52.630;4.896;2023-06-14T06:38:21;6.57;;;2.50;;
66874;SDS011;53784;52.630;4.896;2023-06-14T06:40:47;6.25;;;2.65;;
66874;SDS011;53784;52.630;4.896;2023-06-14T06:43:12;8.07;;;2.58;;
66874;SDS011;53784;52.630;4.896;2023-06-14T06:45:42;7.05;;;2.70;;
66874;SDS011;53784;52.630;4.896;2023-06-14T06:48:07;4.47;;;2.60;;
66874;SDS011;53784;52.630;4.896;2023-06-14T06:50:35;5.05;;;2.53;;
66874;SDS011;53784;52.630;4.896;2023-06-14T06:53:00;7.03;;;2.83;;
66874;SDS011;53784;52.630;4.896;2023-06-14T06:55:25;5.97;;;2.60;;
66874;SDS011;53784;52.630;4.896;2023-06-14T06:57:50;5.83;;;2.90;;
66874;SDS011;53784;52.630;4.896;2023-06-14T07:00:17;5.47;;;2.88;;
66874;SDS011;53784;52.630;4.896;2023-06-14T07:02:43;6.18;;;2.60;;
66874;SDS011;53784;52.630;4.896;2023-06-14T07:05:08;6.80;;;2.75;;
66874;SDS011;53784;52.630;4.896;2023-06-14T07:07:34;8.07;;;2.70;;
66874;SDS011;53784;52.630;4.896;2023-06-14T07:09:59;6.10;;;2.70;;
66874;SDS011;53784;52.630;4.896;2023-06-14T07:12:25;6.90;;;2.72;;
66874;SDS011;53784;52.630;4.896;2023-06-14T07:14:50;5.57;;;2.80;;
66874;SDS011;53784;52.630;4.896;2023-06-14T07:17:16;7.07;;;2.80;;
66874;SDS011;53784;52.630;4.896;2023-06-14T07:19:41;5.57;;;2.70;;
66874;SDS011;53784;52.630;4.896;2023-06-14T07:22:06;7.30;;;2.97;;
66874;SDS011;53784;52.630;4.896;2023-06-14T07:24:31;6.03;;;3.03;;
66874;SDS011;53784;52.630;4.896;2023-06-14T07:26:57;6.53;;;2.80;;
66874;SDS011;53784;52.630;4.896;2023-06-14T07:29:22;7.27;;;2.73;;
66874;SDS011;53784;52.630;4.896;2023-06-14T07:31:47;5.07;;;2.63;;
66874;SDS011;53784;52.630;4.896;2023-06-14T07:34:13;7.50;;;2.67;;
66874;SDS011;53784;52.630;4.896;2023-06-14T07:36:38;4.70;;;2.73;;
66874;SDS011;53784;52.630;4.896;2023-06-14T07:39:04;6.97;;;2.80;;
66874;SDS011;53784;52.630;4.896;2023-06-14T07:41:31;4.88;;;2.83;;
66874;SDS011;53784;52.630;4.896;2023-06-14T07:43:56;6.63;;;3.00;;
66874;SDS011;53784;52.630;4.896;2023-06-14T07:46:21;4.68;;;2.90;;
66874;SDS011;53784;52.630;4.896;2023-06-14T07:48:47;6.00;;;2.75;;
66874;SDS011;53784;52.630;4.896;2023-06-14T07:51:13;5.53;;;2.90;;
66874;SDS011;53784;52.630;4.896;2023-06-14T07:53:38;4.93;;;2.83;;
66874;SDS011;53784;52.630;4.896;2023-06-14T07:56:03;6.23;;;3.07;;
66874;SDS011;53784;52.630;4.896;2023-06-14T07:58:29;7.78;;;3.20;;
66874;SDS011;53784;52.630;4.896;2023-06-14T08:00:54;6.87;;;3.20;;
66874;SDS011;53784;52.630;4.896;2023-06-14T08:03:19;7.20;;;3.00;;
66874;SDS011;53784;52.630;4.896;2023-06-14T08:05:45;6.57;;;2.83;;
66874;SDS011;53784;52.630;4.896;2023-06-14T08:08:10;5.47;;;3.00;;
66874;SDS011;53784;52.630;4.896;2023-06-14T08:10:35;8.33;;;2.70;;
66874;SDS011;53784;52.630;4.896;2023-06-14T08:13:01;6.13;;;3.10;;
66874;SDS011;53784;52.630;4.896;2023-06-14T08:15:26;21.53;;;3.60;;
66874;SDS011;53784;52.630;4.896;2023-06-14T08:17:51;4.77;;;3.10;;
66874;SDS011;53784;52.630;4.896;2023-06-14T08:20:17;7.17;;;3.37;;
66874;SDS011;53784;52.630;4.896;2023-06-14T08:22:42;8.13;;;3.20;;
66874;SDS011;53784;52.630;4.896;2023-06-14T08:25:08;6.07;;;3.10;;
66874;SDS011;53784;52.630;4.896;2023-06-14T08:27:33;7.40;;;3.10;;
66874;SDS011;53784;52.630;4.896;2023-06-14T08:29:59;6.35;;;3.15;;
66874;SDS011;53784;52.630;4.896;2023-06-14T08:32:25;6.13;;;3.20;;
66874;SDS011;53784;52.630;4.896;2023-06-14T08:34:50;6.97;;;3.00;;
66874;SDS011;53784;52.630;4.896;2023-06-14T08:37:15;7.32;;;3.20;;
66874;SDS011;53784;52.630;4.896;2023-06-14T08:39:41;5.67;;;2.93;;
66874;SDS011;53784;52.630;4.896;2023-06-14T08:42:07;5.38;;;2.92;;
66874;SDS011;53784;52.630;4.896;2023-06-14T08:44:32;5.97;;;3.53;;
66874;SDS011;53784;52.630;4.896;2023-06-14T08:46:58;5.32;;;2.90;;
66874;SDS011;53784;52.630;4.896;2023-06-14T08:49:24;8.32;;;3.30;;
66874;SDS011;53784;52.630;4.896;2023-06-14T08:51:50;8.63;;;3.35;;
66874;SDS011;53784;52.630;4.896;2023-06-14T08:54:22;8.18;;;3.00;;
66874;SDS011;53784;52.630;4.896;2023-06-14T08:56:49;9.10;;;3.38;;
66874;SDS011;53784;52.630;4.896;2023-06-14T08:59:16;5.32;;;3.10;;
66874;SDS011;53784;52.630;4.896;2023-06-14T09:01:43;6.63;;;3.38;;
66874;SDS011;53784;52.630;4.896;2023-06-14T09:04:10;6.60;;;3.10;;
66874;SDS011;53784;52.630;4.896;2023-06-14T09:06:35;7.60;;;3.23;;
66874;SDS011;53784;52.630;4.896;2023-06-14T09:09:01;6.70;;;3.50;;
66874;SDS011;53784;52.630;4.896;2023-06-14T09:11:29;7.43;;;3.27;;
66874;SDS011;53784;52.630;4.896;2023-06-14T09:13:55;6.07;;;3.22;;
66874;SDS011;53784;52.630;4.896;2023-06-14T09:16:20;5.97;;;3.10;;
66874;SDS011;53784;52.630;4.896;2023-06-14T09:18:46;6.70;;;2.93;;
66874;SDS011;53784;52.630;4.896;2023-06-14T09:21:13;5.30;;;2.65;;
66874;SDS011;53784;52.630;4.896;2023-06-14T09:23:41;6.13;;;2.90;;
66874;SDS011;53784;52.630;4.896;2023-06-14T09:28:34;5.40;;;2.80;;
66874;SDS011;53784;52.630;4.896;2023-06-14T09:31:00;4.22;;;2.90;;
66874;SDS011;53784;52.630;4.896;2023-06-14T09:33:26;5.05;;;2.88;;
66874;SDS011;53784;52.630;4.896;2023-06-14T09:35:52;6.22;;;2.72;;
66874;SDS011;53784;52.630;4.896;2023-06-14T09:38:19;7.03;;;3.10;;
66874;SDS011;53784;52.630;4.896;2023-06-14T09:40:45;5.13;;;2.85;;
66874;SDS011;53784;52.630;4.896;2023-06-14T09:43:10;5.35;;;3.08;;
66874;SDS011;53784;52.630;4.896;2023-06-14T09:45:36;4.37;;;2.90;;
66874;SDS011;53784;52.630;4.896;2023-06-14T09:48:04;5.25;;;2.80;;
66874;SDS011;53784;52.630;4.896;2023-06-14T09:50:32;5.73;;;2.90;;
66874;SDS011;53784;52.630;4.896;2023-06-14T09:52:59;4.13;;;2.95;;
66874;SDS011;53784;52.630;4.896;2023-06-14T09:55:35;6.90;;;2.90;;
66874;SDS011;53784;52.630;4.896;2023-06-14T09:58:04;4.10;;;2.60;;
66874;SDS011;53784;52.630;4.896;2023-06-14T10:00:31;3.88;;;3.00;;
66874;SDS011;53784;52.630;4.896;2023-06-14T10:02:59;4.97;;;2.70;;
66874;SDS011;53784;52.630;4.896;2023-06-14T10:05:26;4.95;;;2.80;;
66874;SDS011;53784;52.630;4.896;2023-06-14T10:07:56;5.35;;;2.80;;
66874;SDS011;53784;52.630;4.896;2023-06-14T10:10:25;6.13;;;2.75;;
66874;SDS011;53784;52.630;4.896;2023-06-14T10:12:50;6.10;;;2.90;;
66874;SDS011;53784;52.630;4.896;2023-06-14T10:18:24;7.40;;;3.33;;
66874;SDS011;53784;52.630;4.896;2023-06-14T10:21:20;7.18;;;3.20;;
66874;SDS011;53784;52.630;4.896;2023-06-14T10:23:48;6.97;;;3.40;;
66874;SDS011;53784;52.630;4.896;2023-06-14T10:26:22;4.30;;;3.10;;
66874;SDS011;53784;52.630;4.896;2023-06-14T10:29:01;4.15;;;3.10;;
66874;SDS011;53784;52.630;4.896;2023-06-14T10:34:11;5.18;;;3.08;;
66874;SDS011;53784;52.630;4.896;2023-06-14T10:36:38;5.15;;;2.95;;
66874;SDS011;53784;52.630;4.896;2023-06-14T10:39:07;4.70;;;2.75;;
66874;SDS011;53784;52.630;4.896;2023-06-14T10:41:36;4.55;;;2.90;;
66874;SDS011;53784;52.630;4.896;2023-06-14T10:46:40;8.00;;;3.10;;
66874;SDS011;53784;52.630;4.896;2023-06-14T10:49:06;4.75;;;3.20;;
66874;SDS011;53784;52.630;4.896;2023-06-14T10:51:38;5.50;;;3.10;;
66874;SDS011;53784;52.630;4.896;2023-06-14T10:54:14;4.97;;;2.92;;
66874;SDS011;53784;52.630;4.896;2023-06-14T10:56:50;5.85;;;3.20;;
66874;SDS011;53784;52.630;4.896;2023-06-14T10:59:17;4.68;;;3.30;;
66874;SDS011;53784;52.630;4.896;2023-06-14T11:04:49;3.95;;;3.20;;
66874;SDS011;53784;52.630;4.896;2023-06-14T11:10:17;5.88;;;3.42;;
66874;SDS011;53784;52.630;4.896;2023-06-14T11:12:45;4.93;;;3.47;;
66874;SDS011;53784;52.630;4.896;2023-06-14T11:15:13;6.80;;;3.33;;
66874;SDS011;53784;52.630;4.896;2023-06-14T11:17:38;6.30;;;3.20;;
66874;SDS011;53784;52.630;4.896;2023-06-14T11:20:07;4.65;;;3.05;;
66874;SDS011;53784;52.630;4.896;2023-06-14T11:22:41;4.82;;;3.30;;
66874;SDS011;53784;52.630;4.896;2023-06-14T11:25:10;4.63;;;3.10;;
66874;SDS011;53784;52.630;4.896;2023-06-14T11:27:38;4.45;;;3.10;;
66874;SDS011;53784;52.630;4.896;2023-06-14T11:30:06;5.30;;;3.20;;
66874;SDS011;53784;52.630;4.896;2023-06-14T11:32:32;4.82;;;3.17;;
66874;SDS011;53784;52.630;4.896;2023-06-14T11:34:58;4.70;;;2.97;;
66874;SDS011;53784;52.630;4.896;2023-06-14T11:37:25;5.25;;;3.00;;
66874;SDS011;53784;52.630;4.896;2023-06-14T11:39:55;4.88;;;3.00;;
66874;SDS011;53784;52.630;4.896;2023-06-14T11:44:46;5.30;;;3.20;;
66874;SDS011;53784;52.630;4.896;2023-06-14T11:47:12;5.63;;;3.10;;
66874;SDS011;53784;52.630;4.896;2023-06-14T11:49:37;5.03;;;3.10;;
66874;SDS011;53784;52.630;4.896;2023-06-14T11:52:03;4.13;;;2.87;;
66874;SDS011;53784;52.630;4.896;2023-06-14T11:54:29;5.43;;;2.90;;
66874;SDS011;53784;52.630;4.896;2023-06-14T11:56:54;7.22;;;2.90;;
66874;SDS011;53784;52.630;4.896;2023-06-14T11:59:23;3.60;;;2.73;;
66874;SDS011;53784;52.630;4.896;2023-06-14T12:01:49;4.35;;;2.90;;
66874;SDS011;53784;52.630;4.896;2023-06-14T12:04:14;4.07;;;2.90;;
66874;SDS011;53784;52.630;4.896;2023-06-14T12:06:48;4.40;;;2.80;;
66874;SDS011;53784;52.630;4.896;2023-06-14T12:09:18;3.85;;;3.08;;
66874;SDS011;53784;52.630;4.896;2023-06-14T12:11:43;5.83;;;3.00;;
66874;SDS011;53784;52.630;4.896;2023-06-14T12:14:09;4.77;;;3.13;;
66874;SDS011;53784;52.630;4.896;2023-06-14T12:16:35;4.32;;;2.97;;
66874;SDS011;53784;52.630;4.896;2023-06-14T12:21:41;4.60;;;2.70;;
66874;SDS011;53784;52.630;4.896;2023-06-14T12:24:07;6.93;;;2.83;;
66874;SDS011;53784;52.630;4.896;2023-06-14T12:26:33;7.38;;;2.72;;
66874;SDS011;53784;52.630;4.896;2023-06-14T12:28:58;6.82;;;2.42;;
66874;SDS011;53784;52.630;4.896;2023-06-14T12:31:23;4.67;;;2.50;;
66874;SDS011;53784;52.630;4.896;2023-06-14T12:33:49;4.97;;;2.30;;
66874;SDS011;53784;52.630;4.896;2023-06-14T12:36:14;5.05;;;2.28;;
66874;SDS011;53784;52.630;4.896;2023-06-14T12:38:40;4.47;;;2.20;;
66874;SDS011;53784;52.630;4.896;2023-06-14T12:41:06;3.17;;;1.88;;
66874;SDS011;53784;52.630;4.896;2023-06-14T12:43:32;5.65;;;1.75;;
66874;SDS011;53784;52.630;4.896;2023-06-14T12:45:58;4.60;;;2.00;;
66874;SDS011;53784;52.630;4.896;2023-06-14T12:48:23;3.67;;;1.70;;
66874;SDS011;53784;52.630;4.896;2023-06-14T12:50:48;5.90;;;1.90;;
66874;SDS011;53784;52.630;4.896;2023-06-14T12:53:14;5.37;;;1.77;;
66874;SDS011;53784;52.630;4.896;2023-06-14T12:55:39;4.40;;;1.80;;
66874;SDS011;53784;52.630;4.896;2023-06-14T12:58:04;5.05;;;1.73;;
66874;SDS011;53784;52.630;4.896;2023-06-14T13:00:30;6.90;;;1.80;;
66874;SDS011;53784;52.630;4.896;2023-06-14T13:02:55;4.65;;;1.90;;
66874;SDS011;53784;52.630;4.896;2023-06-14T13:05:21;4.00;;;1.70;;
66874;SDS011;53784;52.630;4.896;2023-06-14T13:07:47;3.88;;;1.50;;
66874;SDS011;53784;52.630;4.896;2023-06-14T13:10:12;3.72;;;1.50;;
66874;SDS011;53784;52.630;4.896;2023-06-14T13:12:38;4.35;;;1.73;;
66874;SDS011;53784;52.630;4.896;2023-06-14T13:15:03;5.10;;;1.60;;
66874;SDS011;53784;52.630;4.896;2023-06-14T13:17:29;3.47;;;1.50;;
66874;SDS011;53784;52.630;4.896;2023-06-14T13:19:54;3.00;;;1.60;;
66874;SDS011;53784;52.630;4.896;2023-06-14T13:22:20;4.30;;;1.73;;
66874;SDS011;53784;52.630;4.896;2023-06-14T13:24:45;4.65;;;1.70;;
66874;SDS011;53784;52.630;4.896;2023-06-14T13:27:11;4.22;;;1.70;;
66874;SDS011;53784;52.630;4.896;2023-06-14T13:29:38;4.32;;;1.70;;
66874;SDS011;53784;52.630;4.896;2023-06-14T13:32:03;3.47;;;1.38;;
66874;SDS011;53784;52.630;4.896;2023-06-14T13:34:29;4.00;;;1.40;;
66874;SDS011;53784;52.630;4.896;2023-06-14T13:36:55;4.43;;;1.40;;
66874;SDS011;53784;52.630;4.896;2023-06-14T13:39:21;2.85;;;1.52;;
66874;SDS011;53784;52.630;4.896;2023-06-14T13:41:46;4.15;;;1.50;;
66874;SDS011;53784;52.630;4.896;2023-06-14T13:44:11;3.45;;;1.40;;
66874;SDS011;53784;52.630;4.896;2023-06-14T13:46:39;4.95;;;1.50;;
66874;SDS011;53784;52.630;4.896;2023-06-14T13:49:04;3.10;;;1.40;;
66874;SDS011;53784;52.630;4.896;2023-06-14T13:51:30;4.10;;;1.75;;
66874;SDS011;53784;52.630;4.896;2023-06-14T13:53:55;4.65;;;1.48;;
66874;SDS011;53784;52.630;4.896;2023-06-14T13:56:21;6.60;;;1.60;;
66874;SDS011;53784;52.630;4.896;2023-06-14T13:58:47;3.80;;;1.70;;
66874;SDS011;53784;52.630;4.896;2023-06-14T14:01:13;3.28;;;1.50;;
66874;SDS011;53784;52.630;4.896;2023-06-14T14:03:38;3.28;;;1.30;;
66874;SDS011;53784;52.630;4.896;2023-06-14T14:06:04;3.97;;;1.70;;
66874;SDS011;53784;52.630;4.896;2023-06-14T14:08:30;3.28;;;1.52;;
66874;SDS011;53784;52.630;4.896;2023-06-14T14:10:56;2.85;;;1.50;;
66874;SDS011;53784;52.630;4.896;2023-06-14T14:13:22;4.28;;;1.40;;
66874;SDS011;53784;52.630;4.896;2023-06-14T14:15:47;4.28;;;1.40;;
66874;SDS011;53784;52.630;4.896;2023-06-14T14:18:14;3.70;;;1.50;;
66874;SDS011;53784;52.630;4.896;2023-06-14T14:20:40;5.60;;;1.60;;
66874;SDS011;53784;52.630;4.896;2023-06-14T14:23:05;5.53;;;1.70;;
66874;SDS011;53784;52.630;4.896;2023-06-14T14:25:31;5.22;;;1.50;;
66874;SDS011;53784;52.630;4.896;2023-06-14T14:27:56;8.05;;;1.70;;
66874;SDS011;53784;52.630;4.896;2023-06-14T14:30:21;3.83;;;1.60;;
66874;SDS011;53784;52.630;4.896;2023-06-14T14:32:48;4.03;;;1.50;;
66874;SDS011;53784;52.630;4.896;2023-06-14T14:35:14;3.35;;;1.60;;
66874;SDS011;53784;52.630;4.896;2023-06-14T14:37:40;7.65;;;1.70;;
66874;SDS011;53784;52.630;4.896;2023-06-14T14:40:05;4.03;;;1.67;;
66874;SDS011;53784;52.630;4.896;2023-06-14T14:42:31;5.97;;;1.60;;
66874;SDS011;53784;52.630;4.896;2023-06-14T14:44:56;3.08;;;1.50;;
66874;SDS011;53784;52.630;4.896;2023-06-14T14:47:22;3.35;;;1.50;;
66874;SDS011;53784;52.630;4.896;2023-06-14T14:49:47;3.10;;;1.50;;
66874;SDS011;53784;52.630;4.896;2023-06-14T14:52:12;4.20;;;1.70;;
66874;SDS011;53784;52.630;4.896;2023-06-14T14:54:38;3.38;;;1.50;;
66874;SDS011;53784;52.630;4.896;2023-06-14T14:57:04;3.67;;;1.60;;
66874;SDS011;53784;52.630;4.896;2023-06-14T14:59:30;4.03;;;1.48;;
66874;SDS011;53784;52.630;4.896;2023-06-14T15:01:55;4.82;;;1.60;;
66874;SDS011;53784;52.630;4.896;2023-06-14T15:04:21;5.18;;;1.50;;
66874;SDS011;53784;52.630;4.896;2023-06-14T15:06:47;3.33;;;1.48;;
66874;SDS011;53784;52.630;4.896;2023-06-14T15:09:12;4.38;;;1.60;;